Time;durP1;ratioP1;P1;durP2;ratioP2;P2;SDS_P1;SDS_P2;PMS_P1;PMS_P2;Temp;Humidity;BMP_temperature;BMP_pressure;BME280_temperature;BME280_humidity;BME280_pressure;Samples;Min_cycle;Max_cycle;Signal;HPM_P1;HPM_P2
2022/05/26 00:00:10;;;;;;;1.10;0.50;;;;;;;18.82;45.26;99913.72;338513;29;1940;-72
2022/05/26 00:00:22;;;;;;;1.50;0.50;;;;;;;18.84;45.40;99917.94;340213;29;1028;-72
2022/05/26 00:00:35;;;;;;;2.13;0.52;;;;;;;18.79;45.45;99909.47;341378;28;1752;-72
2022/05/26 00:00:47;;;;;;;2.75;0.60;;;;;;;18.79;45.85;99911.25;342134;28;1079;-72
2022/05/26 00:01:04;;;;;;;2.30;0.50;;;;;;;18.80;45.54;99918.25;341917;28;1845;-72
2022/05/26 00:01:16;;;;;;;0.98;0.47;;;;;;;18.75;45.49;99919.34;341841;28;1979;-72
2022/05/26 00:01:29;;;;;;;0.93;0.40;;;;;;;18.77;45.58;99912.19;340192;29;1274;-72
2022/05/26 00:01:41;;;;;;;1.35;0.40;;;;;;;18.70;45.60;99916.16;340453;28;1738;-72
2022/05/26 00:01:53;;;;;;;1.83;0.50;;;;;;;18.72;45.64;99914.25;339462;29;2146;-72
2022/05/26 00:02:05;;;;;;;1.25;0.60;;;;;;;18.67;45.42;99913.72;339513;29;1896;-72
2022/05/26 00:02:18;;;;;;;0.60;0.50;;;;;;;18.67;45.59;99916.34;340391;29;1839;-72
2022/05/26 00:02:30;;;;;;;0.65;0.50;;;;;;;18.66;45.62;99909.38;339858;29;1370;-72
2022/05/26 00:02:42;;;;;;;1.02;0.50;;;;;;;18.71;45.40;99916.97;339628;29;1169;-72
2022/05/26 00:02:54;;;;;;;1.52;0.50;;;;;;;18.70;45.50;99916.16;340629;28;1199;-72
2022/05/26 00:03:06;;;;;;;1.60;0.50;;;;;;;18.71;45.40;99914.34;339379;29;1859;-72
2022/05/26 00:03:18;;;;;;;1.40;0.50;;;;;;;18.68;45.90;99917.19;338720;29;1876;-73
2022/05/26 00:03:35;;;;;;;0.90;0.70;;;;;;;18.68;45.63;99915.41;339507;29;1309;-73
2022/05/26 00:03:48;;;;;;;1.10;0.55;;;;;;;18.70;45.63;99920.56;339134;29;1756;-72
2022/05/26 00:04:00;;;;;;;1.50;0.50;;;;;;;18.71;45.49;99915.22;339179;29;1072;-72
2022/05/26 00:04:12;;;;;;;1.30;0.40;;;;;;;18.74;45.47;99915.00;339584;29;1918;-72
2022/05/26 00:04:24;;;;;;;1.58;0.50;;;;;;;18.71;45.66;99915.22;339466;29;1273;-72
2022/05/26 00:04:36;;;;;;;1.23;0.50;;;;;;;18.72;45.58;99922.16;341442;28;1430;-72
2022/05/26 00:04:48;;;;;;;0.60;0.40;;;;;;;18.74;45.67;99912.38;341848;28;1027;-72
2022/05/26 00:05:00;;;;;;;0.50;0.43;;;;;;;18.74;45.47;99920.28;339931;29;1830;-72
2022/05/26 00:05:12;;;;;;;3.10;0.50;;;;;;;18.70;45.45;99920.56;340069;29;1829;-72
2022/05/26 00:05:25;;;;;;;3.60;0.50;;;;;;;18.70;45.43;99916.16;340735;29;1031;-72
2022/05/26 00:05:37;;;;;;;3.83;0.50;;;;;;;18.74;45.65;99917.66;339993;29;2643;-72
2022/05/26 00:05:49;;;;;;;1.90;0.52;;;;;;;18.74;45.68;99922.91;338355;29;1277;-72
2022/05/26 00:06:02;;;;;;;1.40;0.50;;;;;;;18.72;45.57;99919.53;337773;29;1927;-72
2022/05/26 00:06:17;;;;;;;1.85;0.60;;;;;;;18.73;45.78;99915.97;339231;29;1654;-72
2022/05/26 00:06:31;;;;;;;1.55;0.50;;;;;;;18.76;45.76;99921.03;338317;29;1810;-72
2022/05/26 00:06:43;;;;;;;1.67;0.50;;;;;;;18.79;45.69;99920.00;338020;29;1979;-72
2022/05/26 00:06:58;;;;;;;2.17;0.50;;;;;;;18.81;45.73;99914.66;339386;29;1043;-72
2022/05/26 00:07:10;;;;;;;1.30;0.50;;;;;;;18.80;45.71;99916.44;339058;29;1546;-72
2022/05/26 00:07:22;;;;;;;0.98;0.50;;;;;;;18.80;45.80;99920.88;338810;29;1821;-72
2022/05/26 00:07:35;;;;;;;0.88;0.50;;;;;;;18.83;45.79;99918.03;339467;29;1560;-72
2022/05/26 00:07:47;;;;;;;0.88;0.63;;;;;;;18.83;45.58;99913.59;340798;28;1330;-72
2022/05/26 00:07:59;;;;;;;0.70;0.70;;;;;;;18.82;45.45;99916.38;343545;28;1055;-72
2022/05/26 00:08:11;;;;;;;0.70;0.70;;;;;;;18.84;45.50;99927.66;341367;28;1682;-72
2022/05/26 00:08:23;;;;;;;0.55;0.43;;;;;;;18.86;45.36;99920.50;341824;28;1082;-72
2022/05/26 00:08:37;;;;;;;0.45;0.40;;;;;;;18.86;45.52;99915.22;341197;28;1260;-72
2022/05/26 00:08:50;;;;;;;2.00;0.47;;;;;;;18.89;45.47;99922.91;341096;28;1173;-72
2022/05/26 00:09:02;;;;;;;2.35;0.50;;;;;;;18.86;45.45;99920.50;339752;28;1888;-72
2022/05/26 00:09:14;;;;;;;2.30;0.45;;;;;;;18.81;44.95;99917.28;338956;29;1624;-72
2022/05/26 00:09:26;;;;;;;2.10;0.47;;;;;;;18.77;45.59;99916.59;339766;29;1895;-72
2022/05/26 00:09:38;;;;;;;1.77;0.40;;;;;;;18.79;45.43;99927.91;339545;29;1100;-72
2022/05/26 00:09:50;;;;;;;1.13;0.43;;;;;;;18.81;45.44;99925.19;339564;29;1911;-72
2022/05/26 00:10:04;;;;;;;2.80;0.47;;;;;;;18.77;45.75;99916.59;340225;29;1798;-72
2022/05/26 00:10:16;;;;;;;2.90;0.40;;;;;;;18.79;45.77;99919.16;340647;29;1137;-72
2022/05/26 00:10:29;;;;;;;1.67;0.50;;;;;;;18.79;45.94;99924.41;339838;29;1252;-72
2022/05/26 00:10:41;;;;;;;1.55;0.50;;;;;;;18.81;46.28;99919.94;340862;29;1064;-72
2022/05/26 00:10:54;;;;;;;2.05;0.60;;;;;;;18.82;46.37;99914.56;340898;29;1298;-72
2022/05/26 00:11:13;;;;;;;2.60;0.68;;;;;;;18.84;45.79;99922.38;340084;28;1801;-72
2022/05/26 00:11:31;;;;;;;1.30;0.47;;;;;;;18.83;45.73;99921.50;340644;29;1201;-72
2022/05/26 00:11:43;;;;;;;1.27;0.40;;;;;;;18.81;45.73;99925.19;339665;29;1391;-72
2022/05/26 00:11:55;;;;;;;0.90;0.40;;;;;;;18.74;45.64;99916.81;339657;29;1073;-72
2022/05/26 00:12:08;;;;;;;0.30;0.30;;;;;;;18.75;45.66;99919.34;339776;28;1759;-72
2022/05/26 00:12:20;;;;;;;0.30;0.30;;;;;;;18.77;45.94;99921.88;340709;28;1790;-72
2022/05/26 00:12:32;;;;;;;0.50;0.30;;;;;;;18.78;45.70;99918.31;341259;29;1316;-72
2022/05/26 00:12:44;;;;;;;1.13;0.50;;;;;;;18.76;45.68;99921.03;341012;28;1883;-72
2022/05/26 00:12:56;;;;;;;1.02;0.50;;;;;;;18.69;45.83;99919.72;340370;28;1733;-72
2022/05/26 00:13:08;;;;;;;0.75;0.52;;;;;;;18.68;46.22;99915.41;339131;28;1933;-72
2022/05/26 00:13:21;;;;;;;0.60;0.43;;;;;;;18.72;46.26;99923.97;340033;29;2175;-72
2022/05/26 00:13:35;;;;;;;0.50;0.38;;;;;;;18.74;46.09;99917.66;339400;28;1751;-72
2022/05/26 00:13:48;;;;;;;0.82;0.40;;;;;;;18.70;45.89;99916.16;341293;29;800;-72
2022/05/26 00:14:07;;;;;;;1.25;0.40;;;;;;;18.61;46.28;99919.34;340840;28;1957;-72
2022/05/26 00:14:20;;;;;;;1.17;0.50;;;;;;;18.66;46.18;99917.28;340969;28;1597;-72
2022/05/26 00:14:31;;;;;;;1.83;0.40;;;;;;;18.59;46.07;99920.38;339915;28;1509;-72
2022/05/26 00:14:44;;;;;;;1.50;0.40;;;;;;;18.57;46.04;99915.19;339692;29;1550;-72
2022/05/26 00:14:56;;;;;;;0.93;0.40;;;;;;;18.63;46.00;99920.09;339656;29;1050;-72
2022/05/26 00:15:08;;;;;;;0.50;0.47;;;;;;;18.69;46.27;99916.22;339733;28;1860;-72
2022/05/26 00:15:20;;;;;;;1.13;0.50;;;;;;;18.69;45.82;99918.88;340761;29;1866;-72
2022/05/26 00:15:32;;;;;;;1.50;0.50;;;;;;;18.69;45.80;99918.88;340593;29;1355;-72
2022/05/26 00:15:45;;;;;;;0.88;0.40;;;;;;;18.69;45.95;99914.47;340048;29;1824;-72
2022/05/26 00:15:57;;;;;;;1.17;0.40;;;;;;;18.69;45.89;99917.09;340815;29;1278;-72
2022/05/26 00:16:09;;;;;;;1.48;0.40;;;;;;;18.68;46.08;99912.75;339590;28;1771;-72
2022/05/26 00:16:22;;;;;;;1.15;0.40;;;;;;;18.70;45.81;99910.03;340699;29;2028;-72
2022/05/26 00:16:39;;;;;;;0.63;0.40;;;;;;;18.72;46.44;99919.53;339852;29;1639;-72
2022/05/26 00:16:52;;;;;;;0.70;0.50;;;;;;;18.67;45.97;99921.63;339257;29;1771;-72
2022/05/26 00:17:05;;;;;;;1.42;0.40;;;;;;;18.68;45.95;99917.19;339451;29;1919;-72
2022/05/26 00:17:17;;;;;;;2.00;0.40;;;;;;;18.59;46.39;99913.31;340653;28;1891;-72
2022/05/26 00:17:29;;;;;;;1.80;0.50;;;;;;;18.60;46.12;99917.66;340842;28;1292;-72
2022/05/26 00:17:41;;;;;;;1.92;0.50;;;;;;;18.61;46.08;99916.69;341071;28;1047;-72
2022/05/26 00:17:53;;;;;;;1.90;0.50;;;;;;;18.63;46.05;99916.59;341123;28;1096;-72
2022/05/26 00:18:05;;;;;;;2.35;0.50;;;;;;;18.62;46.05;99918.41;340072;28;2075;-72
2022/05/26 00:18:17;;;;;;;1.55;0.45;;;;;;;18.62;46.07;99918.41;340160;29;1697;-72
2022/05/26 00:18:29;;;;;;;1.80;0.50;;;;;;;18.56;46.32;99918.78;341090;29;1376;-72
2022/05/26 00:18:43;;;;;;;1.45;0.50;;;;;;;18.59;46.28;99915.94;339889;29;1888;-72
2022/05/26 00:18:55;;;;;;;1.95;0.50;;;;;;;18.61;46.48;99916.69;340361;29;1808;-72
2022/05/26 00:19:07;;;;;;;1.90;0.50;;;;;;;18.62;46.31;99917.56;341414;28;1168;-72
2022/05/26 00:19:19;;;;;;;1.05;0.50;;;;;;;18.62;46.42;99918.41;340353;29;1803;-72
2022/05/26 00:19:32;;;;;;;0.73;0.43;;;;;;;18.64;45.97;99915.69;339389;29;1270;-72
2022/05/26 00:19:44;;;;;;;0.77;0.63;;;;;;;18.68;46.11;99918.03;338223;29;1388;-72
2022/05/26 00:19:58;;;;;;;1.25;0.80;;;;;;;18.70;46.11;99916.16;337184;29;1093;-72
2022/05/26 00:20:11;;;;;;;1.33;0.77;;;;;;;18.73;46.04;99915.97;336853;29;2129;-72
2022/05/26 00:20:24;;;;;;;1.20;0.60;;;;;;;18.74;46.02;99912.38;338113;29;1903;-72
2022/05/26 00:20:36;;;;;;;1.23;0.60;;;;;;;18.71;46.05;99917.84;337768;29;1119;-72
2022/05/26 00:20:48;;;;;;;1.63;0.52;;;;;;;18.67;46.10;99921.63;338789;29;1594;-72
2022/05/26 00:21:00;;;;;;;1.35;0.50;;;;;;;18.70;45.97;99916.16;338330;29;1287;-72
2022/05/26 00:21:13;;;;;;;0.95;0.40;;;;;;;18.70;45.80;99920.56;339221;29;1669;-72
2022/05/26 00:21:25;;;;;;;1.42;0.50;;;;;;;18.70;46.14;99921.41;339245;29;1766;-72
2022/05/26 00:21:38;;;;;;;1.02;0.50;;;;;;;18.69;45.83;99914.47;339867;29;1728;-72
2022/05/26 00:21:50;;;;;;;1.52;0.50;;;;;;;18.72;46.09;99919.53;339664;29;2019;-72
2022/05/26 00:22:02;;;;;;;1.50;0.57;;;;;;;18.68;45.90;99927.72;340116;29;1802;-72
2022/05/26 00:22:15;;;;;;;1.98;0.68;;;;;;;18.62;45.93;99921.03;340720;29;1527;-72
2022/05/26 00:22:27;;;;;;;1.40;0.60;;;;;;;18.56;46.01;99918.78;341488;28;1128;-72
2022/05/26 00:22:39;;;;;;;1.10;0.50;;;;;;;18.61;46.10;99921.97;339611;29;1288;-72
2022/05/26 00:22:51;;;;;;;1.40;0.50;;;;;;;18.62;45.92;99925.47;339266;29;1690;-72
2022/05/26 00:23:03;;;;;;;1.45;0.60;;;;;;;18.57;46.12;99920.47;338519;29;1614;-72
2022/05/26 00:23:15;;;;;;;1.70;0.57;;;;;;;18.62;45.92;99925.47;337589;29;1911;-73
2022/05/26 00:23:27;;;;;;;0.90;0.47;;;;;;;18.61;46.09;99921.97;339147;29;1105;-72
2022/05/26 00:23:39;;;;;;;1.02;0.50;;;;;;;18.63;46.04;99925.34;339528;29;1116;-72
2022/05/26 00:23:54;;;;;;;1.10;0.50;;;;;;;18.67;45.99;99921.63;337805;29;2171;-72
2022/05/26 00:24:07;;;;;;;1.05;0.40;;;;;;;18.64;46.00;99919.16;337763;29;1893;-72
2022/05/26 00:24:20;;;;;;;0.30;0.30;;;;;;;18.68;45.99;99922.44;338732;29;1687;-72
2022/05/26 00:24:32;;;;;;;0.30;0.30;;;;;;;18.68;46.01;99922.44;339249;29;1259;-72
2022/05/26 00:24:44;;;;;;;0.40;0.40;;;;;;;18.70;45.87;99920.56;338162;29;1736;-72
2022/05/26 00:24:56;;;;;;;0.60;0.40;;;;;;;18.71;45.96;99923.13;337791;29;1060;-72
2022/05/26 00:25:08;;;;;;;1.55;0.40;;;;;;;18.61;45.94;99916.69;339269;29;1869;-72
2022/05/26 00:25:21;;;;;;;1.48;0.40;;;;;;;18.67;45.76;99921.63;339103;29;1638;-72
2022/05/26 00:25:32;;;;;;;2.70;0.47;;;;;;;18.66;45.79;99919.91;339270;29;1235;-72
2022/05/26 00:25:45;;;;;;;2.40;0.50;;;;;;;18.66;45.83;99919.91;339505;29;1104;-72
2022/05/26 00:25:57;;;;;;;1.00;0.50;;;;;;;18.67;45.96;99921.63;338380;29;1722;-72
2022/05/26 00:26:09;;;;;;;0.75;0.50;;;;;;;18.64;46.00;99926.22;339133;29;1484;-72
2022/05/26 00:26:22;;;;;;;0.80;0.50;;;;;;;18.61;46.02;99921.97;339328;29;1257;-72
2022/05/26 00:26:34;;;;;;;1.10;0.50;;;;;;;18.61;46.02;99919.34;339316;29;1716;-72
2022/05/26 00:26:47;;;;;;;1.20;0.47;;;;;;;18.61;46.19;99924.59;339780;29;780;-72
2022/05/26 00:26:59;;;;;;;1.52;0.43;;;;;;;18.64;46.14;99921.78;338866;29;1984;-72
2022/05/26 00:27:11;;;;;;;1.80;0.50;;;;;;;18.61;46.20;99927.22;338286;29;1865;-72
2022/05/26 00:27:23;;;;;;;2.20;0.50;;;;;;;18.62;46.21;99923.69;338791;29;1173;-72
2022/05/26 00:27:35;;;;;;;2.33;0.50;;;;;;;18.60;46.58;99920.28;338322;29;1497;-72
2022/05/26 00:27:47;;;;;;;0.93;0.50;;;;;;;18.63;46.42;99922.72;338988;29;1104;-72
2022/05/26 00:27:59;;;;;;;1.25;0.50;;;;;;;18.63;46.31;99919.25;340129;29;1290;-72
2022/05/26 00:28:11;;;;;;;0.80;0.43;;;;;;;18.63;46.17;99925.34;340125;28;1573;-72
2022/05/26 00:28:23;;;;;;;1.88;0.50;;;;;;;18.66;46.24;99922.53;339863;29;1064;-72
2022/05/26 00:28:35;;;;;;;1.92;0.50;;;;;;;18.69;46.08;99919.72;339535;29;1093;-72
2022/05/26 00:28:47;;;;;;;1.60;0.50;;;;;;;18.71;46.28;99923.13;339530;29;1129;-72
2022/05/26 00:28:59;;;;;;;1.13;0.50;;;;;;;18.73;46.32;99921.22;339491;29;1067;-72
2022/05/26 00:29:12;;;;;;;2.53;0.52;;;;;;;18.73;46.39;99923.88;340191;29;1534;-72
2022/05/26 00:29:24;;;;;;;3.35;0.60;;;;;;;18.73;46.11;99915.97;340276;29;1234;-72
2022/05/26 00:29:37;;;;;;;2.00;0.50;;;;;;;18.75;45.86;99919.34;339691;29;1183;-72
2022/05/26 00:29:49;;;;;;;1.02;0.57;;;;;;;18.76;46.21;99926.28;339448;29;1166;-72
2022/05/26 00:30:01;;;;;;;1.02;0.50;;;;;;;18.75;46.08;99921.13;339133;28;1750;-72
2022/05/26 00:30:13;;;;;;;1.25;0.50;;;;;;;18.75;46.00;99921.13;340477;29;1695;-72
2022/05/26 00:30:25;;;;;;;1.25;0.50;;;;;;;18.78;45.93;99928.84;339001;29;1090;-72
2022/05/26 00:30:37;;;;;;;0.77;0.50;;;;;;;18.75;45.82;99924.63;338266;29;1144;-72
2022/05/26 00:30:50;;;;;;;0.68;0.50;;;;;;;18.76;45.66;99923.66;338073;29;1669;-72
2022/05/26 00:31:02;;;;;;;0.55;0.45;;;;;;;18.65;46.07;99926.13;338862;29;1873;-73
2022/05/26 00:31:14;;;;;;;2.83;0.50;;;;;;;18.64;45.98;99921.78;339141;29;1556;-73
2022/05/26 00:31:26;;;;;;;3.80;0.57;;;;;;;18.61;45.72;99924.59;338954;29;1198;-73
2022/05/26 00:31:39;;;;;;;3.83;0.60;;;;;;;18.64;45.48;99919.16;337959;29;1366;-73
2022/05/26 00:31:51;;;;;;;4.53;0.60;;;;;;;18.56;45.99;99919.63;338556;29;1211;-73
2022/05/26 00:32:03;;;;;;;3.15;0.50;;;;;;;18.57;46.04;99925.72;339332;28;1780;-73
2022/05/26 00:32:16;;;;;;;2.42;0.63;;;;;;;18.59;46.23;99918.59;340481;29;1511;-72
2022/05/26 00:32:29;;;;;;;1.15;0.47;;;;;;;18.62;45.92;99923.69;339975;29;1304;-72
2022/05/26 00:32:41;;;;;;;1.00;0.32;;;;;;;18.63;45.99;99925.34;339751;29;1055;-72
2022/05/26 00:32:53;;;;;;;0.57;0.38;;;;;;;18.67;46.24;99926.00;339798;29;1055;-72
2022/05/26 00:33:07;;;;;;;1.38;0.50;;;;;;;18.65;45.94;99927.91;339486;28;1922;-72
2022/05/26 00:33:19;;;;;;;1.40;0.50;;;;;;;18.58;46.11;99927.44;340151;29;1792;-73
2022/05/26 00:33:31;;;;;;;1.00;0.50;;;;;;;18.50;46.42;99921.78;341018;29;1321;-72
2022/05/26 00:33:43;;;;;;;1.30;0.47;;;;;;;18.51;46.26;99921.72;341089;28;1351;-72
2022/05/26 00:33:55;;;;;;;1.98;0.40;;;;;;;18.51;46.34;99926.97;342041;28;1235;-72
2022/05/26 00:34:08;;;;;;;2.72;0.40;;;;;;;18.54;45.93;99932.03;340569;28;1820;-72
2022/05/26 00:34:20;;;;;;;1.60;0.50;;;;;;;18.60;46.28;99929.97;340404;29;1645;-72
2022/05/26 00:34:32;;;;;;;1.42;0.57;;;;;;;18.62;45.93;99928.09;340187;29;1687;-72
2022/05/26 00:34:47;;;;;;;1.10;0.50;;;;;;;18.55;45.98;99928.47;340448;29;1504;-72
2022/05/26 00:34:59;;;;;;;1.38;0.50;;;;;;;18.50;46.13;99929.69;339317;29;1269;-73
2022/05/26 00:35:11;;;;;;;1.05;0.50;;;;;;;18.50;46.19;99930.53;339569;29;2261;-72
2022/05/26 00:35:23;;;;;;;0.88;0.50;;;;;;;18.51;46.36;99926.09;340821;28;1782;-72
2022/05/26 00:35:36;;;;;;;0.85;0.40;;;;;;;18.53;46.01;99927.72;340497;29;1232;-72
2022/05/26 00:35:49;;;;;;;1.30;0.40;;;;;;;18.52;46.15;99927.81;339913;28;1695;-72
2022/05/26 00:36:06;;;;;;;1.40;0.50;;;;;;;18.56;46.17;99929.31;340295;29;1771;-72
2022/05/26 00:36:37;;;;;;;0.90;0.50;;;;;;;18.56;45.83;99924.88;340092;29;1748;-72
2022/05/26 00:36:50;;;;;;;1.67;0.40;;;;;;;18.51;46.27;99931.38;339598;29;1103;-73
2022/05/26 00:37:07;;;;;;;0.70;0.40;;;;;;;18.56;46.11;99934.59;340995;28;1751;-73
2022/05/26 00:37:19;;;;;;;1.10;0.50;;;;;;;18.56;46.09;99929.31;339916;29;1729;-72
2022/05/26 00:37:31;;;;;;;0.80;0.40;;;;;;;18.58;46.05;99932.69;338328;29;2100;-72
2022/05/26 00:37:44;;;;;;;1.25;0.40;;;;;;;18.56;45.97;99931.94;338617;29;1929;-72
2022/05/26 00:37:56;;;;;;;3.70;0.52;;;;;;;18.56;46.24;99929.31;336937;29;1052;-72
2022/05/26 00:38:09;;;;;;;3.72;0.50;;;;;;;18.57;46.25;99925.72;337068;29;1985;-72
2022/05/26 00:38:21;;;;;;;2.97;0.45;;;;;;;18.58;46.15;99931.88;337107;29;1512;-72
2022/05/26 00:38:33;;;;;;;1.08;0.30;;;;;;;18.57;46.17;99925.72;338011;29;1327;-73
2022/05/26 00:38:45;;;;;;;1.10;0.30;;;;;;;18.53;46.19;99929.50;338114;29;1114;-72
2022/05/26 00:38:57;;;;;;;0.50;0.30;;;;;;;18.47;46.22;99924.59;339516;29;1139;-72
2022/05/26 00:39:15;;;;;;;1.08;0.40;;;;;;;18.53;46.41;99930.34;337482;29;1795;-72
2022/05/26 00:39:27;;;;;;;1.40;0.50;;;;;;;18.54;46.19;99931.19;337810;29;1275;-72
2022/05/26 00:39:39;;;;;;;1.10;0.55;;;;;;;18.56;46.36;99924.06;339456;29;1249;-72
2022/05/26 00:39:51;;;;;;;1.30;0.50;;;;;;;18.60;46.36;99920.28;339337;29;1325;-72
2022/05/26 00:40:06;;;;;;;1.30;0.50;;;;;;;18.61;46.30;99927.22;339725;29;1742;-72
2022/05/26 00:40:18;;;;;;;1.50;0.43;;;;;;;18.63;46.80;99935.88;340936;28;1598;-72
2022/05/26 00:40:32;;;;;;;1.40;0.40;;;;;;;18.66;46.96;99925.19;340234;29;1196;-72
2022/05/26 00:40:44;;;;;;;2.85;0.47;;;;;;;18.71;46.75;99933.66;340575;29;1068;-72
2022/05/26 00:41:05;;;;;;;2.05;0.50;;;;;;;18.72;46.29;99927.44;340870;29;1509;-72
2022/05/26 00:41:16;;;;;;;0.40;0.40;;;;;;;18.72;45.94;99930.06;341004;29;1736;-73
2022/05/26 00:41:28;;;;;;;0.77;0.40;;;;;;;18.70;45.99;99926.69;340733;29;1204;-73
2022/05/26 00:41:44;;;;;;;2.65;0.45;;;;;;;18.68;45.82;99930.34;340593;29;1422;-72
2022/05/26 00:42:01;;;;;;;2.60;0.60;;;;;;;18.72;46.01;99929.22;340298;29;1884;-72
2022/05/26 00:42:13;;;;;;;1.40;0.70;;;;;;;18.71;46.04;99933.66;339144;29;1977;-72
2022/05/26 00:42:25;;;;;;;1.20;0.68;;;;;;;18.74;46.08;99930.81;340165;29;1101;-72
2022/05/26 00:42:38;;;;;;;1.35;0.60;;;;;;;18.75;45.96;99929.88;339504;29;1109;-72
2022/05/26 00:42:50;;;;;;;0.60;0.38;;;;;;;18.79;46.00;99930.53;338034;29;1085;-72
2022/05/26 00:43:03;;;;;;;0.95;0.50;;;;;;;18.78;46.09;99934.09;337994;29;1846;-72
2022/05/26 00:43:15;;;;;;;1.58;0.40;;;;;;;18.75;46.41;99929.88;338015;29;1548;-72
2022/05/26 00:43:28;;;;;;;1.70;0.40;;;;;;;18.75;46.39;99929.00;339883;29;1217;-72
2022/05/26 00:43:45;;;;;;;1.38;0.40;;;;;;;18.80;46.30;99934.06;340757;29;1104;-72
2022/05/26 00:43:57;;;;;;;1.90;0.50;;;;;;;18.82;46.34;99926.91;339451;29;1047;-72
2022/05/26 00:44:09;;;;;;;1.98;0.50;;;;;;;18.83;46.60;99931.22;339524;29;1211;-72
2022/05/26 00:44:23;;;;;;;1.90;0.50;;;;;;;18.81;46.62;99925.19;339277;29;1019;-72
2022/05/26 00:44:36;;;;;;;1.80;0.50;;;;;;;18.80;46.15;99932.25;338256;29;1177;-72
2022/05/26 00:44:48;;;;;;;1.10;0.43;;;;;;;18.80;46.04;99926.16;337783;29;1060;-72
2022/05/26 00:45:00;;;;;;;0.82;0.40;;;;;;;18.77;45.94;99928.00;338597;29;2096;-72
2022/05/26 00:45:14;;;;;;;1.15;0.40;;;;;;;18.81;45.90;99928.66;339599;29;1814;-72
2022/05/26 00:46:00;;;;;;;2.00;0.40;;;;;;;18.89;45.79;99929.03;338423;29;1635;-72
2022/05/26 00:46:23;;;;;;;1.20;0.40;;;;;;;18.87;45.91;99930.06;338738;29;1740;-72
2022/05/26 00:46:42;;;;;;;2.10;0.50;;;;;;;18.86;45.88;99928.41;338168;28;1703;-72
2022/05/26 00:47:03;;;;;;;1.63;0.40;;;;;;;18.89;45.77;99930.81;339472;29;1024;-73
2022/05/26 00:47:19;;;;;;;1.10;0.50;;;;;;;18.86;45.65;99926.59;340884;28;1835;-72
2022/05/26 00:47:35;;;;;;;1.10;0.50;;;;;;;18.82;45.66;99929.53;341195;28;1467;-72
2022/05/26 00:47:49;;;;;;;0.77;0.45;;;;;;;18.82;45.72;99932.16;340705;29;1292;-72
2022/05/26 00:48:01;;;;;;;0.98;0.40;;;;;;;18.79;45.93;99924.41;339809;29;1078;-72
2022/05/26 00:48:17;;;;;;;0.85;0.30;;;;;;;18.79;45.76;99927.03;339112;29;1591;-72
2022/05/26 00:48:38;;;;;;;0.77;0.50;;;;;;;18.79;45.78;99933.19;337427;29;1327;-72
2022/05/26 00:48:59;;;;;;;0.60;0.60;;;;;;;18.78;45.89;99931.47;336979;29;1702;-73
2022/05/26 00:49:42;;;;;;;1.00;0.50;;;;;;;18.72;46.18;99930.06;336163;29;2210;-72
2022/05/26 00:50:00;;;;;;;1.20;0.40;;;;;;;18.73;46.10;99933.53;335359;29;1370;-72
2022/05/26 00:50:20;;;;;;;1.20;0.50;;;;;;;18.74;46.23;99927.34;336564;29;1499;-72
2022/05/26 00:50:40;;;;;;;0.60;0.40;;;;;;;18.71;46.11;99933.66;339843;29;1054;-72
2022/05/26 00:50:59;;;;;;;0.50;0.40;;;;;;;18.69;46.23;99930.25;340051;29;1025;-72
2022/05/26 00:51:12;;;;;;;0.50;0.40;;;;;;;18.67;46.42;99929.50;340400;29;2347;-72
2022/05/26 00:51:29;;;;;;;0.82;0.45;;;;;;;18.68;46.42;99928.56;339916;29;2149;-72
2022/05/26 00:51:42;;;;;;;1.98;0.40;;;;;;;18.70;46.23;99933.75;339709;29;1321;-72
2022/05/26 00:51:55;;;;;;;2.25;0.43;;;;;;;18.71;46.43;99923.13;340832;28;1310;-72
2022/05/26 00:52:17;;;;;;;1.83;0.45;;;;;;;18.71;46.30;99933.66;342031;28;1124;-72
2022/05/26 00:52:46;;;;;;;1.33;0.60;;;;;;;18.65;46.21;99928.75;341490;28;1314;-72
2022/05/26 00:53:16;;;;;;;1.58;0.50;;;;;;;18.66;46.38;99933.06;340381;29;1978;-72
2022/05/26 00:53:45;;;;;;;1.70;0.45;;;;;;;18.67;46.60;99934.78;340111;28;1364;-72
2022/05/26 00:54:02;;;;;;;2.08;0.43;;;;;;;18.58;46.71;99932.69;341904;28;1254;-72
2022/05/26 00:54:19;;;;;;;0.73;0.50;;;;;;;18.60;46.63;99936.09;341877;28;1295;-72
2022/05/26 00:54:32;;;;;;;1.02;0.60;;;;;;;18.59;46.60;99929.13;339459;29;1939;-72
2022/05/26 00:54:50;;;;;;;1.05;0.50;;;;;;;18.61;46.72;99931.66;339260;29;1059;-72
2022/05/26 00:55:10;;;;;;;0.85;0.43;;;;;;;18.60;46.50;99928.19;339488;29;1793;-72
2022/05/26 00:55:29;;;;;;;1.33;0.50;;;;;;;18.60;46.89;99930.81;340665;29;1682;-72
2022/05/26 00:55:49;;;;;;;1.67;0.50;;;;;;;18.49;47.10;99922.72;339395;29;1057;-72
2022/05/26 00:56:13;;;;;;;0.68;0.40;;;;;;;18.52;46.77;99927.81;339767;29;1454;-72
2022/05/26 00:56:32;;;;;;;1.02;0.43;;;;;;;18.51;47.05;99926.09;340884;28;1761;-72
2022/05/26 00:56:50;;;;;;;1.88;0.50;;;;;;;18.50;47.04;99929.69;340103;28;1959;-72
2022/05/26 00:57:15;;;;;;;2.40;0.60;;;;;;;18.50;47.12;99927.06;338070;29;1090;-72
2022/05/26 00:57:34;;;;;;;1.20;0.60;;;;;;;18.41;47.26;99931.13;338668;29;1902;-72
2022/05/26 00:57:52;;;;;;;1.58;0.57;;;;;;;18.46;47.30;99931.66;338132;29;864;-72
2022/05/26 00:58:07;;;;;;;2.10;0.85;;;;;;;18.50;47.12;99924.44;338312;29;1827;-72
2022/05/26 00:58:25;;;;;;;0.95;0.80;;;;;;;18.49;47.05;99934.13;338452;29;1560;-72
2022/05/26 00:58:42;;;;;;;0.55;0.45;;;;;;;18.50;47.22;99927.91;338142;29;1282;-72
2022/05/26 00:59:18;;;;;;;1.58;0.68;;;;;;;18.59;46.84;99933.53;339391;29;1081;-72
2022/05/26 00:59:36;;;;;;;0.40;0.40;;;;;;;18.63;47.01;99927.97;340196;28;1267;-72
2022/05/26 00:59:57;;;;;;;1.45;0.50;;;;;;;18.62;46.87;99934.19;339621;29;1080;-72
2022/05/26 01:00:15;;;;;;;0.98;0.50;;;;;;;18.60;47.00;99925.56;339501;28;1843;-72
2022/05/26 01:00:33;;;;;;;2.13;0.50;;;;;;;18.63;46.66;99925.34;340543;28;1129;-72
2022/05/26 01:00:46;;;;;;;0.95;0.50;;;;;;;18.67;46.70;99932.16;339512;29;1077;-72
2022/05/26 01:01:01;;;;;;;3.47;0.68;;;;;;;18.68;46.83;99923.28;339489;29;1024;-72
2022/05/26 01:01:15;;;;;;;3.42;0.70;;;;;;;18.68;46.73;99923.28;339207;29;1672;-72
2022/05/26 01:01:29;;;;;;;1.03;0.50;;;;;;;18.66;46.83;99930.44;338876;29;1107;-72
2022/05/26 01:01:41;;;;;;;1.80;0.50;;;;;;;18.68;47.01;99927.72;340040;29;1395;-72
2022/05/26 01:01:55;;;;;;;1.52;0.50;;;;;;;18.70;46.90;99928.47;340478;29;1184;-72
2022/05/26 01:02:08;;;;;;;2.13;0.57;;;;;;;18.67;46.80;99926.88;338987;29;1894;-72
2022/05/26 01:02:32;;;;;;;2.17;0.50;;;;;;;18.60;46.67;99925.56;338613;29;1690;-72
2022/05/26 01:02:56;;;;;;;0.70;0.50;;;;;;;18.61;46.82;99932.50;337596;29;1667;-72
2022/05/26 01:03:33;;;;;;;2.47;0.50;;;;;;;18.59;46.75;99931.75;338793;29;1873;-72
2022/05/26 01:04:04;;;;;;;1.05;0.40;;;;;;;18.60;46.95;99927.34;340497;29;1888;-72
2022/05/26 01:04:21;;;;;;;1.40;0.55;;;;;;;18.61;46.66;99927.22;340653;29;1922;-72
2022/05/26 01:04:42;;;;;;;1.42;0.50;;;;;;;18.61;46.88;99921.97;340379;29;1145;-72
2022/05/26 01:04:58;;;;;;;1.50;0.43;;;;;;;18.61;46.86;99931.66;341435;28;1214;-72
2022/05/26 01:05:16;;;;;;;1.27;0.40;;;;;;;18.62;46.81;99933.38;339764;28;1871;-73
2022/05/26 01:05:35;;;;;;;0.73;0.50;;;;;;;18.62;46.72;99930.72;339960;29;1245;-73
2022/05/26 01:05:57;;;;;;;1.60;0.50;;;;;;;18.50;46.89;99929.69;339084;29;1685;-72
2022/05/26 01:06:32;;;;;;;0.47;0.40;;;;;;;18.48;47.16;99931.56;339001;29;2205;-71
2022/05/26 01:06:48;;;;;;;1.88;0.57;;;;;;;18.48;47.12;99936.84;339475;29;1938;-71
2022/05/26 01:07:09;;;;;;;1.33;0.40;;;;;;;18.49;47.15;99928.00;340924;29;1062;-71
2022/05/26 01:07:25;;;;;;;2.20;0.50;;;;;;;18.51;47.08;99932.25;341016;29;1831;-72
2022/05/26 01:07:38;;;;;;;2.15;0.40;;;;;;;18.48;47.24;99926.31;341256;29;877;-72
2022/05/26 01:07:51;;;;;;;1.83;0.40;;;;;;;18.48;47.03;99932.41;340825;29;1097;-72
2022/05/26 01:08:10;;;;;;;0.73;0.40;;;;;;;18.46;47.20;99933.44;340592;29;1145;-72
2022/05/26 01:08:37;;;;;;;1.35;0.50;;;;;;;18.45;47.07;99931.75;339991;29;1785;-72
2022/05/26 01:08:54;;;;;;;1.90;0.50;;;;;;;18.42;47.21;99927.53;340442;29;1797;-72
2022/05/26 01:09:07;;;;;;;1.60;0.50;;;;;;;18.40;47.22;99928.56;340017;28;1779;-72
2022/05/26 01:09:20;;;;;;;1.08;0.47;;;;;;;18.42;47.29;99931.94;340482;29;1598;-72
2022/05/26 01:09:32;;;;;;;1.00;0.40;;;;;;;18.44;47.41;99930.06;339372;29;1313;-72
2022/05/26 01:09:44;;;;;;;1.90;0.50;;;;;;;18.47;47.05;99932.50;339473;29;1207;-72
2022/05/26 01:09:57;;;;;;;2.33;0.50;;;;;;;18.47;47.14;99928.09;339657;29;1570;-72
2022/05/26 01:10:12;;;;;;;3.00;0.50;;;;;;;18.50;47.02;99930.53;337935;29;1713;-72
2022/05/26 01:10:24;;;;;;;1.80;0.40;;;;;;;18.52;47.00;99933.06;339392;29;1075;-72